createdAt,value
2018-09-14T00:00:37.963Z,5.87
2018-09-14T00:03:07.146Z,6.83
2018-09-14T00:05:36.320Z,5.77
2018-09-14T00:08:05.309Z,5.30
2018-09-14T00:10:34.418Z,6.00
2018-09-14T00:13:03.308Z,6.10
2018-09-14T00:15:32.524Z,6.10
2018-09-14T00:18:00.996Z,5.60
2018-09-14T00:20:29.589Z,6.60
2018-09-14T00:22:57.784Z,6.93
2018-09-14T00:25:25.976Z,5.63
2018-09-14T00:27:54.169Z,6.67
2018-09-14T00:30:22.671Z,7.53
2018-09-14T00:32:50.844Z,7.43
2018-09-14T00:35:19.020Z,6.87
2018-09-14T00:37:47.157Z,6.53
2018-09-14T00:40:15.892Z,7.10
2018-09-14T00:42:44.069Z,7.40
2018-09-14T00:45:12.220Z,7.40
2018-09-14T00:47:40.401Z,6.73
2018-09-14T00:50:08.518Z,7.03
2018-09-14T00:52:38.174Z,7.40
2018-09-14T00:55:06.370Z,7.80
2018-09-14T00:57:34.545Z,7.10
2018-09-14T01:00:03.470Z,8.07
2018-09-14T01:02:31.651Z,7.83
2018-09-14T01:05:00.684Z,7.97
2018-09-14T01:07:28.856Z,7.90
2018-09-14T01:09:57.004Z,8.00
2018-09-14T01:12:25.861Z,8.30
2018-09-14T01:14:54.076Z,7.97
2018-09-14T01:17:22.321Z,7.77
2018-09-14T01:19:50.468Z,8.70
2018-09-14T01:22:18.644Z,8.07
2018-09-14T01:24:46.828Z,8.00
2018-09-14T01:27:15.686Z,8.23
2018-09-14T01:29:43.836Z,7.40
2018-09-14T01:32:12.012Z,7.50
2018-09-14T01:34:40.189Z,8.43
2018-09-14T01:37:08.339Z,7.90
2018-09-14T01:39:36.492Z,7.20
2018-09-14T01:42:04.688Z,8.03
2018-09-14T01:44:32.857Z,8.43
2018-09-14T01:47:01.094Z,9.03
2018-09-14T01:49:29.313Z,8.10
2018-09-14T01:51:57.460Z,8.40
2018-09-14T01:54:26.594Z,8.80
2018-09-14T01:56:54.805Z,8.80
2018-09-14T01:59:22.930Z,8.93
2018-09-14T02:01:51.176Z,7.80
2018-09-14T02:04:19.385Z,8.67
2018-09-14T02:06:47.614Z,8.60
2018-09-14T02:09:15.796Z,7.93
2018-09-14T02:11:43.996Z,9.30
2018-09-14T02:14:13.456Z,9.60
2018-09-14T02:16:41.615Z,9.63
2018-09-14T02:19:09.776Z,10.97
2018-09-14T02:21:38.328Z,9.67
2018-09-14T02:24:06.941Z,9.70
2018-09-14T02:26:35.131Z,9.20
2018-09-14T02:29:03.327Z,10.30
2018-09-14T02:31:31.497Z,8.70
2018-09-14T02:33:59.668Z,9.30
2018-09-14T02:36:28.147Z,9.00
2018-09-14T02:38:56.303Z,9.13
2018-09-14T02:41:25.264Z,9.20
2018-09-14T02:43:53.676Z,8.43
2018-09-14T02:46:21.869Z,9.73
2018-09-14T02:48:50.097Z,9.27
2018-09-14T02:51:18.608Z,10.07
2018-09-14T02:53:46.825Z,10.50
2018-09-14T02:56:16.144Z,9.73
2018-09-14T02:58:44.330Z,10.20
2018-09-14T03:01:13.000Z,10.50
2018-09-14T03:03:41.215Z,10.03
2018-09-14T03:06:09.377Z,10.50
2018-09-14T03:08:37.893Z,9.53
2018-09-14T03:11:06.193Z,10.80
2018-09-14T03:13:34.404Z,9.90
2018-09-14T03:16:02.610Z,10.23
2018-09-14T03:18:30.826Z,10.07
2018-09-14T03:20:59.367Z,9.37
2018-09-14T03:23:27.542Z,10.03
2018-09-14T03:25:55.693Z,9.57
2018-09-14T03:28:24.841Z,10.33
2018-09-14T03:30:52.974Z,10.70
2018-09-14T03:33:21.705Z,11.67
2018-09-14T03:35:49.860Z,10.00
2018-09-14T03:38:18.009Z,10.40
2018-09-14T03:40:46.178Z,9.80
2018-09-14T03:43:14.378Z,9.20
2018-09-14T03:45:42.544Z,9.43
2018-09-14T03:48:10.791Z,9.60
2018-09-14T03:50:39.891Z,9.90
2018-09-14T03:53:08.987Z,9.37
2018-09-14T03:55:37.168Z,9.90
2018-09-14T03:58:05.489Z,10.20
2018-09-14T04:00:33.681Z,11.03
2018-09-14T04:03:01.852Z,10.27
2018-09-14T04:05:29.980Z,10.07
2018-09-14T04:07:58.163Z,9.80
2018-09-14T04:10:26.792Z,9.17
2018-09-14T04:12:54.960Z,11.03
2018-09-14T04:15:24.321Z,8.80
2018-09-14T04:17:52.536Z,9.50
2018-09-14T04:20:21.200Z,9.33
2018-09-14T04:22:49.384Z,9.40
2018-09-14T04:25:18.464Z,8.87
2018-09-14T04:27:46.734Z,11.10
2018-09-14T04:30:14.906Z,9.97
2018-09-14T04:32:43.164Z,8.97
2018-09-14T04:35:11.380Z,9.57
2018-09-14T04:37:39.624Z,9.37
2018-09-14T04:40:07.869Z,8.33
2018-09-14T04:42:36.140Z,8.10
2018-09-14T04:45:04.822Z,9.30
2018-09-14T04:47:33.078Z,8.43
2018-09-14T04:50:02.900Z,8.20
2018-09-14T04:52:32.949Z,8.80
2018-09-14T04:55:01.737Z,9.63
2018-09-14T04:57:30.046Z,8.03
2018-09-14T04:59:59.582Z,8.87
2018-09-14T05:02:27.743Z,8.90
2018-09-14T05:04:55.932Z,8.00
2018-09-14T05:07:24.141Z,8.77
2018-09-14T05:09:52.348Z,8.40
2018-09-14T05:12:20.524Z,7.90
2018-09-14T05:14:48.936Z,7.60
2018-09-14T05:17:17.075Z,7.00
2018-09-14T05:19:45.573Z,7.90
2018-09-14T05:22:13.763Z,8.23
2018-09-14T05:24:41.970Z,8.00
2018-09-14T05:27:10.121Z,8.10
2018-09-14T05:29:38.572Z,6.83
2018-09-14T05:32:06.800Z,7.10
2018-09-14T05:34:35.916Z,7.90
2018-09-14T05:37:04.598Z,7.70
2018-09-14T05:39:32.752Z,8.33
2018-09-14T05:42:00.960Z,7.67
2018-09-14T05:44:29.137Z,8.73
2018-09-14T05:46:57.349Z,7.30
2018-09-14T05:49:25.551Z,7.90
2018-09-14T05:51:53.708Z,8.23
2018-09-14T05:54:21.864Z,6.60
2018-09-14T05:56:49.992Z,7.17
2018-09-14T05:59:18.111Z,6.77
2018-09-14T06:01:46.261Z,7.50
2018-09-14T06:04:14.388Z,7.47
2018-09-14T06:06:43.249Z,7.83
2018-09-14T06:09:13.332Z,8.43
2018-09-14T06:11:43.065Z,6.60
2018-09-14T06:14:11.244Z,8.17
2018-09-14T06:16:39.708Z,7.17
2018-09-14T06:19:09.868Z,7.90
2018-09-14T06:21:38.057Z,7.87
2018-09-14T06:24:06.241Z,7.37
2018-09-14T06:26:34.376Z,7.93
2018-09-14T06:29:02.682Z,9.20
2018-09-14T06:31:31.292Z,8.30
2018-09-14T06:33:59.497Z,8.40
2018-09-14T06:36:27.719Z,8.47
2018-09-14T06:38:56.049Z,7.60
2018-09-14T06:41:24.233Z,7.83
2018-09-14T06:43:52.595Z,7.40
2018-09-14T06:46:20.736Z,8.20
2018-09-14T06:48:48.872Z,7.40
2018-09-14T06:51:17.037Z,6.80
2018-09-14T06:53:47.319Z,7.00
2018-09-14T06:56:15.428Z,6.93
2018-09-14T06:58:43.652Z,7.27
2018-09-14T07:01:12.736Z,6.77
2018-09-14T07:03:41.286Z,6.80
2018-09-14T07:06:09.441Z,6.60
2018-09-14T07:08:37.695Z,6.70
2018-09-14T07:11:05.937Z,7.00
2018-09-14T07:13:34.624Z,6.70
2018-09-14T07:16:03.517Z,7.77
2018-09-14T07:18:31.681Z,6.77
2018-09-14T07:20:59.816Z,7.47
2018-09-14T07:23:28.092Z,6.20
2018-09-14T07:25:57.115Z,5.90
2018-09-14T07:28:25.903Z,6.50
2018-09-14T07:30:54.049Z,6.17
2018-09-14T07:33:22.200Z,6.90
2018-09-14T07:35:50.425Z,7.47
2018-09-14T07:38:18.611Z,7.90
2018-09-14T07:40:47.179Z,6.80
2018-09-14T07:43:15.352Z,6.67
2018-09-14T07:45:43.565Z,7.97
2018-09-14T07:48:11.768Z,7.00
2018-09-14T07:50:39.965Z,6.00
2018-09-14T07:53:08.200Z,7.17
2018-09-14T07:55:36.903Z,6.37
2018-09-14T07:58:05.116Z,5.87
2018-09-14T08:00:33.812Z,6.57
2018-09-14T08:03:02.014Z,6.70
2018-09-14T08:05:30.165Z,6.53
2018-09-14T08:07:58.304Z,7.00
2018-09-14T08:10:26.492Z,6.10
2018-09-14T08:12:54.922Z,5.87
2018-09-14T08:15:23.105Z,5.53
2018-09-14T08:17:51.244Z,5.97
2018-09-14T08:20:19.764Z,5.50
2018-09-14T08:22:47.829Z,5.20
2018-09-14T08:25:16.900Z,6.07
2018-09-14T08:27:45.068Z,5.10
2018-09-14T08:30:13.765Z,6.00
2018-09-14T08:32:41.982Z,5.37
2018-09-14T08:35:10.177Z,4.53
2018-09-14T08:37:38.451Z,5.30
2018-09-14T08:40:06.729Z,5.17
2018-09-14T08:42:35.256Z,5.47
2018-09-14T08:45:03.691Z,6.03
2018-09-14T08:47:31.968Z,5.00
2018-09-14T08:50:00.230Z,5.87
2018-09-14T08:52:30.237Z,4.80
2018-09-14T08:54:58.500Z,5.07
2018-09-14T08:57:26.645Z,4.80
2018-09-14T08:59:54.795Z,5.20
2018-09-14T09:02:22.970Z,4.77
2018-09-14T09:04:52.008Z,4.00
2018-09-14T09:07:20.523Z,4.20
2018-09-14T09:09:49.381Z,4.70
2018-09-14T09:12:17.565Z,4.60
2018-09-14T09:14:45.692Z,4.17
2018-09-14T09:17:13.920Z,4.93
2018-09-14T09:19:42.510Z,4.00
2018-09-14T09:22:11.097Z,3.80
2018-09-14T09:24:39.667Z,3.20
2018-09-14T09:27:07.969Z,3.40
2018-09-14T09:29:36.195Z,2.73
2018-09-14T09:32:04.361Z,2.93
2018-09-14T09:34:32.588Z,2.77
2018-09-14T09:37:00.734Z,2.57
2018-09-14T09:39:28.840Z,2.40
2018-09-14T09:41:57.021Z,2.70
2018-09-14T09:44:26.659Z,2.90
2018-09-14T09:46:54.796Z,2.30
2018-09-14T09:49:23.387Z,2.90
2018-09-14T09:51:51.879Z,3.00
2018-09-14T09:54:20.645Z,2.10
2018-09-14T09:56:49.567Z,3.20
2018-09-14T09:59:18.251Z,3.90
2018-09-14T10:01:51.865Z,2.97
2018-09-14T10:04:25.272Z,2.20
2018-09-14T10:06:54.876Z,2.80
2018-09-14T10:09:23.048Z,2.97
2018-09-14T10:11:51.173Z,2.83
2018-09-14T10:14:20.613Z,2.80
2018-09-14T10:16:48.776Z,3.10
2018-09-14T10:19:18.778Z,2.80
2018-09-14T10:21:46.950Z,2.80
2018-09-14T10:24:16.052Z,2.40
2018-09-14T10:26:44.309Z,2.80
2018-09-14T10:29:12.484Z,3.10
2018-09-14T10:31:40.649Z,2.60
2018-09-14T10:34:08.793Z,2.60
2018-09-14T10:36:37.040Z,2.90
2018-09-14T10:39:08.213Z,2.23
2018-09-14T10:41:37.214Z,3.63
2018-09-14T10:44:05.435Z,3.07
2018-09-14T10:46:33.628Z,2.73
2018-09-14T10:49:01.793Z,2.93
2018-09-14T10:51:30.144Z,3.30
2018-09-14T10:53:58.355Z,3.13
2018-09-14T10:56:26.538Z,2.53
2018-09-14T10:58:55.671Z,2.60
2018-09-14T11:01:23.804Z,2.47
2018-09-14T11:03:51.968Z,2.67
2018-09-14T11:06:20.177Z,2.80
2018-09-14T11:08:48.386Z,3.20
2018-09-14T11:11:16.533Z,2.60
2018-09-14T11:13:44.659Z,2.60
2018-09-14T11:16:12.843Z,2.20
2018-09-14T11:18:41.259Z,2.43
2018-09-14T11:21:09.377Z,2.30
2018-09-14T11:23:37.589Z,2.60
2018-09-14T11:26:05.744Z,2.63
2018-09-14T11:28:33.917Z,2.63
2018-09-14T11:31:02.028Z,2.87
2018-09-14T11:33:31.160Z,2.63
2018-09-14T11:35:59.347Z,3.07
2018-09-14T11:38:27.934Z,2.70
2018-09-14T11:40:56.032Z,3.13
2018-09-14T11:43:24.516Z,2.80
2018-09-14T11:45:52.716Z,3.37
2018-09-14T11:48:20.840Z,2.70
2018-09-14T11:50:49.576Z,2.67
2018-09-14T11:53:17.760Z,2.40
2018-09-14T11:55:45.947Z,2.43
2018-09-14T11:58:14.179Z,2.80
2018-09-14T12:00:42.593Z,2.20
2018-09-14T12:03:10.817Z,2.83
2018-09-14T12:05:39.013Z,2.23
2018-09-14T12:08:07.308Z,2.90
2018-09-14T12:10:36.291Z,2.10
2018-09-14T12:13:04.764Z,2.87
2018-09-14T12:15:33.337Z,2.40
2018-09-14T12:18:01.530Z,2.27
2018-09-14T12:20:29.697Z,2.20
2018-09-14T12:22:58.372Z,1.93
2018-09-14T12:25:26.585Z,2.53
2018-09-14T12:27:54.704Z,2.00
2018-09-14T12:30:22.905Z,2.00
2018-09-14T12:32:51.056Z,2.23
2018-09-14T12:35:19.269Z,2.20
2018-09-14T12:37:48.384Z,2.40
2018-09-14T12:40:16.589Z,2.53
2018-09-14T12:42:45.032Z,2.70
2018-09-14T12:45:13.296Z,2.50
2018-09-14T12:47:41.499Z,2.77
2018-09-14T12:50:11.165Z,2.27
2018-09-14T12:52:39.382Z,2.47
2018-09-14T12:55:08.117Z,2.10
2018-09-14T12:57:36.276Z,2.60
2018-09-14T13:00:04.537Z,2.63
2018-09-14T13:02:32.748Z,2.60
2018-09-14T13:05:00.888Z,2.33
2018-09-14T13:07:29.712Z,2.10
2018-09-14T13:09:57.893Z,2.13
2018-09-14T13:12:26.021Z,2.33
2018-09-14T13:14:54.863Z,2.20
2018-09-14T13:17:22.964Z,2.00
2018-09-14T13:19:51.138Z,2.20
2018-09-14T13:22:19.398Z,2.13
2018-09-14T13:24:47.536Z,2.43
2018-09-14T13:27:15.696Z,2.27
2018-09-14T13:29:43.841Z,2.13
2018-09-14T13:32:12.037Z,2.53
2018-09-14T13:34:40.192Z,2.43
2018-09-14T13:37:08.997Z,2.20
2018-09-14T13:39:37.160Z,2.73
2018-09-14T13:42:05.347Z,2.20
2018-09-14T13:44:33.488Z,2.70
2018-09-14T13:47:01.803Z,2.57
2018-09-14T13:49:29.968Z,2.57
2018-09-14T13:51:58.136Z,2.30
2018-09-14T13:54:26.304Z,2.57
2018-09-14T13:56:54.505Z,2.57
2018-09-14T13:59:22.671Z,2.80
2018-09-14T14:01:50.860Z,2.53
2018-09-14T14:04:19.084Z,2.17
2018-09-14T14:06:47.251Z,2.53
2018-09-14T14:09:15.425Z,2.40
2018-09-14T14:11:43.598Z,2.80
2018-09-14T14:14:11.743Z,2.03
2018-09-14T14:16:40.083Z,2.53
2018-09-14T14:19:08.565Z,2.40
2018-09-14T14:21:36.814Z,2.50
2018-09-14T14:24:04.981Z,2.47
2018-09-14T14:26:33.180Z,2.10
2018-09-14T14:29:01.660Z,3.60
2018-09-14T14:31:29.791Z,2.20
2018-09-14T14:33:57.956Z,2.50
2018-09-14T14:36:26.120Z,2.40
2018-09-14T14:38:54.570Z,2.40
2018-09-14T14:41:22.884Z,2.50
2018-09-14T14:43:50.957Z,2.33
2018-09-14T14:46:19.108Z,2.20
2018-09-14T14:48:47.289Z,2.50
2018-09-14T14:51:15.429Z,2.23
2018-09-14T14:53:44.736Z,2.80
2018-09-14T14:56:12.900Z,2.27
2018-09-14T14:58:41.964Z,2.50
2018-09-14T15:01:10.108Z,2.50
2018-09-14T15:03:38.261Z,2.97
2018-09-14T15:06:06.775Z,2.87
2018-09-14T15:08:36.373Z,2.57
2018-09-14T15:11:04.633Z,3.03
2018-09-14T15:13:32.799Z,2.50
2018-09-14T15:16:01.020Z,2.93
2018-09-14T15:18:42.460Z,2.53
2018-09-14T15:21:10.617Z,2.40
2018-09-14T15:23:38.832Z,2.23
2018-09-14T15:26:06.988Z,2.27
2018-09-14T15:28:35.942Z,2.60
2018-09-14T15:31:04.104Z,2.20
2018-09-14T15:33:32.288Z,2.50
2018-09-14T15:36:01.829Z,2.60
2018-09-14T15:38:30.036Z,2.70
2018-09-14T15:40:58.248Z,2.30
2018-09-14T15:43:26.952Z,2.77
2018-09-14T15:45:55.472Z,2.43
2018-09-14T15:48:24.191Z,2.73
2018-09-14T15:50:52.396Z,3.30
2018-09-14T15:53:21.461Z,2.43
2018-09-14T15:55:49.616Z,3.13
2018-09-14T15:58:18.116Z,2.40
2018-09-14T16:00:46.330Z,2.67
2018-09-14T16:03:14.481Z,2.60
2018-09-14T16:05:43.192Z,3.03
2018-09-14T16:08:11.460Z,2.60
2018-09-14T16:10:40.460Z,2.70
2018-09-14T16:13:09.624Z,2.63
2018-09-14T16:15:37.749Z,2.70
2018-09-14T16:18:05.940Z,2.50
2018-09-14T16:20:34.121Z,2.67
2018-09-14T16:23:02.637Z,2.60
2018-09-14T16:25:30.830Z,2.63
2018-09-14T16:27:59.031Z,3.13
2018-09-14T16:30:27.216Z,3.00
2018-09-14T16:32:55.373Z,3.20
2018-09-14T16:35:23.548Z,2.40
2018-09-14T16:37:52.322Z,2.60
2018-09-14T16:40:20.726Z,3.00
2018-09-14T16:42:49.277Z,2.53
2018-09-14T16:45:17.436Z,2.57
2018-09-14T16:47:46.056Z,3.47
2018-09-14T16:50:14.399Z,3.30
2018-09-14T16:52:42.572Z,2.70
2018-09-14T16:55:10.735Z,3.77
2018-09-14T16:57:38.897Z,3.37
2018-09-14T17:00:07.623Z,2.90
2018-09-14T17:02:35.807Z,3.10
2018-09-14T17:05:03.965Z,2.80
2018-09-14T17:07:32.152Z,2.60
2018-09-14T17:10:00.329Z,3.17
2018-09-14T17:12:28.460Z,2.63
2018-09-14T17:14:56.664Z,2.90
2018-09-14T17:17:25.805Z,2.90
2018-09-14T17:19:53.968Z,2.67
2018-09-14T17:22:22.155Z,2.60
2018-09-14T17:24:50.268Z,3.10
2018-09-14T17:27:18.445Z,2.80
2018-09-14T17:29:46.555Z,2.90
2018-09-14T17:32:14.716Z,2.93
2018-09-14T17:34:42.881Z,2.90
2018-09-14T17:37:11.064Z,2.73
2018-09-14T17:39:39.320Z,2.93
2018-09-14T17:42:07.496Z,3.23
2018-09-14T17:44:35.690Z,3.30
2018-09-14T17:47:03.778Z,2.93
2018-09-14T17:49:31.953Z,3.20
2018-09-14T17:52:00.124Z,2.93
2018-09-14T17:54:28.268Z,2.80
2018-09-14T17:56:57.071Z,3.07
2018-09-14T17:59:25.216Z,3.33
2018-09-14T18:01:53.396Z,3.30
2018-09-14T18:04:21.778Z,2.93
2018-09-14T18:06:49.966Z,3.60
2018-09-14T18:09:18.409Z,2.90
2018-09-14T18:11:46.662Z,3.37
2018-09-14T18:14:14.794Z,4.50
2018-09-14T18:16:42.970Z,3.80
2018-09-14T18:19:11.088Z,4.17
2018-09-14T18:21:40.081Z,3.60
2018-09-14T18:24:08.336Z,4.80
2018-09-14T18:26:36.503Z,3.80
2018-09-14T18:29:04.680Z,3.27
2018-09-14T18:31:32.852Z,3.63
2018-09-14T18:34:01.665Z,3.90
2018-09-14T18:36:29.850Z,4.00
2018-09-14T18:38:59.045Z,3.80
2018-09-14T18:41:27.461Z,3.37
2018-09-14T18:43:55.654Z,3.30
2018-09-14T18:46:23.844Z,3.50
2018-09-14T18:48:52.055Z,3.23
2018-09-14T18:51:20.261Z,3.43
2018-09-14T18:53:48.505Z,3.17
2018-09-14T18:56:16.944Z,3.50
2018-09-14T18:58:45.114Z,4.00
2018-09-14T19:01:14.356Z,2.63
2018-09-14T19:03:43.141Z,4.03
2018-09-14T19:06:11.316Z,3.50
2018-09-14T19:08:39.505Z,2.83
2018-09-14T19:11:07.717Z,3.27
2018-09-14T19:13:35.936Z,3.87
2018-09-14T19:16:04.090Z,3.93
2018-09-14T19:18:32.363Z,3.63
2018-09-14T19:21:00.549Z,4.87
2018-09-14T19:23:29.905Z,4.17
2018-09-14T19:25:59.300Z,3.70
2018-09-14T19:28:27.556Z,3.50
2018-09-14T19:30:55.745Z,3.03
2018-09-14T19:33:23.957Z,3.13
2018-09-14T19:35:52.153Z,3.53
2018-09-14T19:38:20.356Z,3.80
2018-09-14T19:40:48.506Z,3.43
2018-09-14T19:43:16.732Z,3.23
2018-09-14T19:45:44.888Z,3.67
2018-09-14T19:48:13.131Z,3.80
2018-09-14T19:50:41.328Z,3.67
2018-09-14T19:53:09.530Z,3.33
2018-09-14T19:55:37.674Z,3.27
2018-09-14T19:58:05.894Z,3.50
2018-09-14T20:00:34.626Z,2.60
2018-09-14T20:03:03.539Z,3.03
2018-09-14T20:05:31.753Z,3.20
2018-09-14T20:07:59.965Z,2.67
2018-09-14T20:10:28.120Z,3.33
2018-09-14T20:12:56.312Z,3.47
2018-09-14T20:15:24.461Z,3.47
2018-09-14T20:17:52.692Z,3.30
2018-09-14T20:20:20.788Z,3.20
2018-09-14T20:22:49.456Z,2.80
2018-09-14T20:25:17.629Z,4.07
2018-09-14T20:27:45.873Z,3.77
2018-09-14T20:30:14.781Z,3.90
2018-09-14T20:32:43.322Z,3.97
2018-09-14T20:35:12.027Z,3.73
2018-09-14T20:37:40.217Z,4.20
2018-09-14T20:40:08.444Z,3.37
2018-09-14T20:42:36.618Z,4.67
2018-09-14T20:45:04.788Z,4.57
2018-09-14T20:47:33.340Z,4.90
2018-09-14T20:50:01.492Z,5.30
2018-09-14T20:52:30.275Z,4.67
2018-09-14T20:54:58.460Z,4.20
2018-09-14T20:57:26.793Z,4.50
2018-09-14T20:59:54.968Z,4.47
2018-09-14T21:02:23.137Z,4.67
2018-09-14T21:04:51.280Z,5.50
2018-09-14T21:07:19.807Z,5.60
2018-09-14T21:09:47.980Z,5.90
2018-09-14T21:12:16.416Z,5.63
2018-09-14T21:14:44.601Z,5.60
2018-09-14T21:17:12.809Z,6.40
2018-09-14T21:19:40.993Z,6.10
2018-09-14T21:22:09.258Z,7.10
2018-09-14T21:24:37.409Z,7.27
2018-09-14T21:27:05.592Z,6.33
2018-09-14T21:29:33.791Z,7.27
2018-09-14T21:32:01.924Z,7.13
2018-09-14T21:34:30.123Z,6.50
2018-09-14T21:36:58.293Z,6.77
2018-09-14T21:39:26.511Z,8.00
2018-09-14T21:41:55.486Z,7.33
2018-09-14T21:44:23.719Z,7.63
2018-09-14T21:46:51.840Z,7.10
2018-09-14T21:49:20.388Z,7.77
2018-09-14T21:51:49.037Z,8.40
2018-09-14T21:54:17.788Z,7.47
2018-09-14T21:56:45.945Z,10.30
2018-09-14T21:59:14.105Z,6.70
2018-09-14T22:01:42.280Z,8.70
2018-09-14T22:04:10.405Z,8.00
2018-09-14T22:06:38.597Z,8.73
2018-09-14T22:09:08.758Z,8.73
2018-09-14T22:11:36.996Z,8.60
2018-09-14T22:14:05.171Z,9.20
2018-09-14T22:16:33.867Z,8.10
2018-09-14T22:19:02.054Z,8.20
2018-09-14T22:21:30.208Z,7.87
2018-09-14T22:23:58.366Z,8.30
2018-09-14T22:26:26.489Z,8.57
2018-09-14T22:28:54.646Z,8.77
2018-09-14T22:31:22.773Z,8.63
2018-09-14T22:33:51.502Z,8.50
2018-09-14T22:36:19.721Z,8.47
2018-09-14T22:38:47.876Z,8.67
2018-09-14T22:41:16.365Z,8.67
2018-09-14T22:43:45.396Z,8.10
2018-09-14T22:46:13.553Z,8.50
2018-09-14T22:48:41.768Z,8.33
2018-09-14T22:51:09.950Z,8.00
2018-09-14T22:53:38.982Z,8.00
2018-09-14T22:56:07.192Z,8.50
2018-09-14T22:58:35.334Z,8.33
2018-09-14T23:01:09.751Z,7.77
2018-09-14T23:03:39.481Z,8.73
2018-09-14T23:06:07.683Z,8.37
2018-09-14T23:08:35.869Z,7.90
2018-09-14T23:11:04.062Z,7.60
2018-09-14T23:13:32.207Z,7.50
2018-09-14T23:16:01.771Z,6.90
2018-09-14T23:18:30.859Z,7.63
2018-09-14T23:20:59.574Z,7.73
2018-09-14T23:23:27.805Z,7.43
2018-09-14T23:25:58.071Z,7.00
2018-09-14T23:28:27.621Z,7.33
2018-09-14T23:30:56.433Z,7.27
2018-09-14T23:33:24.582Z,7.63
2018-09-14T23:35:52.737Z,7.20
2018-09-14T23:38:20.987Z,8.13
2018-09-14T23:40:49.139Z,8.37
2018-09-14T23:43:17.278Z,7.83
2018-09-14T23:45:45.464Z,8.00
2018-09-14T23:48:14.634Z,6.90
2018-09-14T23:50:44.165Z,6.50
2018-09-14T23:53:12.322Z,6.93
2018-09-14T23:55:40.480Z,6.80
2018-09-14T23:58:08.647Z,7.07
